createdAt,value
2022-12-09T00:00:04.898Z,1011.11
2022-12-09T00:16:00.769Z,1010.94
2022-12-09T00:31:01.777Z,1011.08
2022-12-09T00:46:02.973Z,1011.01
2022-12-09T01:00:03.889Z,1011.15
2022-12-09T01:16:04.630Z,1011.38
2022-12-09T01:31:05.636Z,1011.28
2022-12-09T01:46:01.620Z,1011.31
2022-12-09T02:00:02.768Z,1011.08
2022-12-09T02:16:03.293Z,1010.87
2022-12-09T02:31:04.428Z,1010.57
2022-12-09T02:46:05.404Z,1010.3
2022-12-09T03:00:00.936Z,1010.2
2022-12-09T03:16:01.905Z,1009.89
2022-12-09T03:31:03.207Z,1009.79
2022-12-09T03:46:03.583Z,1009.66
2022-12-09T04:00:04.576Z,1009.55
2022-12-09T04:16:00.612Z,1009.32
2022-12-09T04:31:01.357Z,1009.32
2022-12-09T04:46:02.676Z,1009.21
2022-12-09T05:00:03.221Z,1009.05
2022-12-09T05:16:05.383Z,1009.01
2022-12-09T05:31:00.422Z,1008.98
2022-12-09T05:46:01.253Z,1008.84
2022-12-09T06:00:02.132Z,1008.67
2022-12-09T06:16:04.404Z,1008.54
2022-12-09T06:31:03.614Z,1008.4
2022-12-09T06:46:04.869Z,1008.27
2022-12-09T07:00:00.650Z,1008.27
2022-12-09T07:16:01.562Z,1008.17
2022-12-09T07:31:02.495Z,1008.2
2022-12-09T07:46:04.216Z,1008.06
2022-12-09T08:00:04.234Z,1007.69
2022-12-09T08:16:05.306Z,1007.49
2022-12-09T08:31:01.346Z,1007.62
2022-12-09T08:46:01.967Z,1007.56
2022-12-09T09:00:03.184Z,1007.15
2022-12-09T09:16:04.767Z,1006.98
2022-12-09T09:31:07.671Z,1006.88
2022-12-09T09:46:00.507Z,1006.74
2022-12-09T10:00:08.499Z,1006.54
2022-12-09T10:16:02.608Z,1006.2
2022-12-09T10:31:03.674Z,1005.73
2022-12-09T10:46:21.219Z,1005.76
2022-12-09T11:00:05.088Z,1005.63
2022-12-09T11:16:01.251Z,1005.42
2022-12-09T11:31:28.394Z,1005.42
2022-12-09T11:46:02.600Z,1004.88
2022-12-09T12:00:09.066Z,1004.51
2022-12-09T12:16:04.311Z,1004.41
2022-12-09T12:31:00.251Z,1004.14
2022-12-09T12:46:01.723Z,1004.1
2022-12-09T13:00:02.729Z,1003.83
2022-12-09T13:16:03.504Z,1003.46
2022-12-09T13:31:04.328Z,1003.36
2022-12-09T13:46:00.687Z,1003.02
2022-12-09T14:00:01.514Z,1002.68
2022-12-09T14:16:02.482Z,1002.78
2022-12-09T14:31:08.324Z,1002.68
2022-12-09T14:46:07.068Z,1002.65
2022-12-09T15:00:00.658Z,1002.58
2022-12-09T15:16:01.955Z,1002.61
2022-12-09T15:31:00.263Z,1002.41
2022-12-09T15:46:03.556Z,1002.31
2022-12-09T16:00:04.680Z,1002.17
2022-12-09T16:16:00.624Z,1002.07
2022-12-09T16:31:01.490Z,1001.93
2022-12-09T16:46:02.462Z,1001.49
2022-12-09T17:00:03.287Z,1001.32
2022-12-09T17:16:04.465Z,1001.43
2022-12-09T17:31:00.239Z,1001.16
2022-12-09T17:46:01.140Z,1001.53
2022-12-09T18:00:01.915Z,1001.39
2022-12-09T18:16:02.957Z,1001.32
2022-12-09T18:31:04.156Z,1001.39
2022-12-09T18:46:00.228Z,1001.12
2022-12-09T19:00:01.131Z,1001.26
2022-12-09T19:16:01.943Z,1001.19
2022-12-09T19:31:02.948Z,1001.16
2022-12-09T19:46:03.907Z,1001.09
2022-12-09T20:00:05.010Z,1001.09
2022-12-09T20:16:01.080Z,1001.16
2022-12-09T20:31:01.937Z,1001.39
2022-12-09T20:46:02.992Z,1001.43
2022-12-09T21:00:03.737Z,1001.32
2022-12-09T21:16:04.683Z,1001.26
2022-12-09T21:31:03.082Z,1001.36
2022-12-09T21:46:01.673Z,1001.39
2022-12-09T22:00:02.542Z,1001.6
2022-12-09T22:16:03.779Z,1001.7
2022-12-09T22:31:04.587Z,1001.87
2022-12-09T22:46:00.614Z,1001.97
2022-12-09T23:00:01.683Z,1001.93
2022-12-09T23:16:02.579Z,1001.9
2022-12-09T23:31:03.631Z,1001.97
2022-12-09T23:46:04.347Z,1001.93
